sensor_id;sensor_type;location;lat;lon;timestamp;P1;durP1;ratioP1;P2;durP2;ratioP2
59189;SDS011;50749;51.636;4.948;2022-10-16T00:01:58;2.10;;;1.08;;
59189;SDS011;50749;51.636;4.948;2022-10-16T00:04:24;1.85;;;1.20;;
59189;SDS011;50749;51.636;4.948;2022-10-16T00:06:49;4.40;;;1.10;;
59189;SDS011;50749;51.636;4.948;2022-10-16T00:09:15;2.17;;;1.20;;
59189;SDS011;50749;51.636;4.948;2022-10-16T00:11:41;4.97;;;1.30;;
59189;SDS011;50749;51.636;4.948;2022-10-16T00:14:09;3.13;;;1.48;;
59189;SDS011;50749;51.636;4.948;2022-10-16T00:16:37;3.47;;;1.23;;
59189;SDS011;50749;51.636;4.948;2022-10-16T00:19:03;2.47;;;1.05;;
59189;SDS011;50749;51.636;4.948;2022-10-16T00:21:30;3.67;;;1.00;;
59189;SDS011;50749;51.636;4.948;2022-10-16T00:23:58;4.00;;;1.38;;
59189;SDS011;50749;51.636;4.948;2022-10-16T00:26:27;2.30;;;1.13;;
59189;SDS011;50749;51.636;4.948;2022-10-16T00:28:54;2.53;;;1.10;;
59189;SDS011;50749;51.636;4.948;2022-10-16T00:31:21;3.65;;;1.40;;
59189;SDS011;50749;51.636;4.948;2022-10-16T00:33:48;1.58;;;1.00;;
59189;SDS011;50749;51.636;4.948;2022-10-16T00:36:16;3.17;;;1.20;;
59189;SDS011;50749;51.636;4.948;2022-10-16T00:38:44;2.85;;;1.00;;
59189;SDS011;50749;51.636;4.948;2022-10-16T00:41:13;2.40;;;1.40;;
59189;SDS011;50749;51.636;4.948;2022-10-16T00:46:16;1.20;;;0.75;;
59189;SDS011;50749;51.636;4.948;2022-10-16T00:48:45;2.40;;;1.00;;
59189;SDS011;50749;51.636;4.948;2022-10-16T00:51:16;3.08;;;1.00;;
59189;SDS011;50749;51.636;4.948;2022-10-16T00:53:45;4.68;;;1.35;;
59189;SDS011;50749;51.636;4.948;2022-10-16T00:56:11;4.95;;;1.10;;
59189;SDS011;50749;51.636;4.948;2022-10-16T00:58:37;1.98;;;1.15;;
59189;SDS011;50749;51.636;4.948;2022-10-16T01:01:03;2.40;;;1.08;;
59189;SDS011;50749;51.636;4.948;2022-10-16T01:03:30;1.77;;;0.90;;
59189;SDS011;50749;51.636;4.948;2022-10-16T01:06:00;1.88;;;1.15;;
59189;SDS011;50749;51.636;4.948;2022-10-16T01:08:44;3.65;;;1.35;;
59189;SDS011;50749;51.636;4.948;2022-10-16T01:11:35;3.42;;;1.20;;
59189;SDS011;50749;51.636;4.948;2022-10-16T01:14:23;2.95;;;1.05;;
59189;SDS011;50749;51.636;4.948;2022-10-16T01:16:58;2.38;;;1.08;;
59189;SDS011;50749;51.636;4.948;2022-10-16T01:19:59;2.72;;;1.00;;
59189;SDS011;50749;51.636;4.948;2022-10-16T01:28:41;2.33;;;0.93;;
59189;SDS011;50749;51.636;4.948;2022-10-16T01:31:22;3.78;;;1.10;;
59189;SDS011;50749;51.636;4.948;2022-10-16T01:33:54;2.75;;;1.00;;
59189;SDS011;50749;51.636;4.948;2022-10-16T01:36:31;1.98;;;1.00;;
59189;SDS011;50749;51.636;4.948;2022-10-16T01:39:02;1.73;;;1.00;;
59189;SDS011;50749;51.636;4.948;2022-10-16T01:41:39;2.85;;;0.90;;
59189;SDS011;50749;51.636;4.948;2022-10-16T01:44:22;2.95;;;1.10;;
59189;SDS011;50749;51.636;4.948;2022-10-16T01:46:53;1.60;;;0.82;;
59189;SDS011;50749;51.636;4.948;2022-10-16T01:49:21;3.50;;;0.95;;
59189;SDS011;50749;51.636;4.948;2022-10-16T01:51:49;3.08;;;1.00;;
59189;SDS011;50749;51.636;4.948;2022-10-16T01:54:19;3.55;;;1.25;;
59189;SDS011;50749;51.636;4.948;2022-10-16T01:56:48;2.20;;;0.90;;
59189;SDS011;50749;51.636;4.948;2022-10-16T01:59:17;2.58;;;0.90;;
59189;SDS011;50749;51.636;4.948;2022-10-16T02:01:50;1.90;;;1.00;;
59189;SDS011;50749;51.636;4.948;2022-10-16T02:07:20;1.85;;;1.08;;
59189;SDS011;50749;51.636;4.948;2022-10-16T02:09:46;1.20;;;0.55;;
59189;SDS011;50749;51.636;4.948;2022-10-16T02:14:37;1.90;;;1.00;;
59189;SDS011;50749;51.636;4.948;2022-10-16T02:17:12;1.95;;;0.88;;
59189;SDS011;50749;51.636;4.948;2022-10-16T02:19:40;2.00;;;1.17;;
59189;SDS011;50749;51.636;4.948;2022-10-16T02:22:08;1.23;;;0.70;;
59189;SDS011;50749;51.636;4.948;2022-10-16T02:24:43;1.25;;;0.80;;
59189;SDS011;50749;51.636;4.948;2022-10-16T02:30:20;2.33;;;1.08;;
59189;SDS011;50749;51.636;4.948;2022-10-16T02:32:47;1.55;;;0.90;;
59189;SDS011;50749;51.636;4.948;2022-10-16T02:35:17;2.13;;;0.80;;
59189;SDS011;50749;51.636;4.948;2022-10-16T02:37:46;1.30;;;0.88;;
59189;SDS011;50749;51.636;4.948;2022-10-16T02:40:13;1.90;;;0.68;;
59189;SDS011;50749;51.636;4.948;2022-10-16T02:42:40;1.83;;;0.80;;
59189;SDS011;50749;51.636;4.948;2022-10-16T02:45:06;1.95;;;0.80;;
59189;SDS011;50749;51.636;4.948;2022-10-16T02:47:34;2.75;;;0.90;;
59189;SDS011;50749;51.636;4.948;2022-10-16T02:50:00;2.30;;;0.98;;
59189;SDS011;50749;51.636;4.948;2022-10-16T02:52:26;1.95;;;0.80;;
59189;SDS011;50749;51.636;4.948;2022-10-16T02:54:52;1.65;;;0.90;;
59189;SDS011;50749;51.636;4.948;2022-10-16T02:57:18;1.67;;;0.77;;
59189;SDS011;50749;51.636;4.948;2022-10-16T02:59:44;1.35;;;0.90;;
59189;SDS011;50749;51.636;4.948;2022-10-16T03:02:10;1.35;;;0.80;;
59189;SDS011;50749;51.636;4.948;2022-10-16T03:04:36;2.05;;;1.10;;
59189;SDS011;50749;51.636;4.948;2022-10-16T03:07:02;1.17;;;0.73;;
59189;SDS011;50749;51.636;4.948;2022-10-16T03:09:28;2.30;;;0.75;;
59189;SDS011;50749;51.636;4.948;2022-10-16T03:11:54;1.23;;;0.60;;
59189;SDS011;50749;51.636;4.948;2022-10-16T03:14:20;1.25;;;0.60;;
59189;SDS011;50749;51.636;4.948;2022-10-16T03:16:46;2.30;;;0.80;;
59189;SDS011;50749;51.636;4.948;2022-10-16T03:19:11;0.90;;;0.52;;
59189;SDS011;50749;51.636;4.948;2022-10-16T03:21:37;1.00;;;0.60;;
59189;SDS011;50749;51.636;4.948;2022-10-16T03:24:03;1.67;;;1.05;;
59189;SDS011;50749;51.636;4.948;2022-10-16T03:26:29;1.85;;;0.77;;
59189;SDS011;50749;51.636;4.948;2022-10-16T03:28:55;3.22;;;0.80;;
59189;SDS011;50749;51.636;4.948;2022-10-16T03:31:20;1.17;;;0.60;;
59189;SDS011;50749;51.636;4.948;2022-10-16T03:33:46;1.63;;;0.80;;
59189;SDS011;50749;51.636;4.948;2022-10-16T03:36:12;2.13;;;0.82;;
59189;SDS011;50749;51.636;4.948;2022-10-16T03:38:38;3.30;;;0.77;;
59189;SDS011;50749;51.636;4.948;2022-10-16T03:41:04;1.65;;;0.65;;
59189;SDS011;50749;51.636;4.948;2022-10-16T03:43:30;1.40;;;0.77;;
59189;SDS011;50749;51.636;4.948;2022-10-16T03:45:56;1.10;;;0.60;;
59189;SDS011;50749;51.636;4.948;2022-10-16T03:48:21;3.70;;;0.90;;
59189;SDS011;50749;51.636;4.948;2022-10-16T03:50:47;1.80;;;0.70;;
59189;SDS011;50749;51.636;4.948;2022-10-16T03:53:14;1.45;;;0.77;;
59189;SDS011;50749;51.636;4.948;2022-10-16T03:55:43;1.80;;;0.77;;
59189;SDS011;50749;51.636;4.948;2022-10-16T03:58:10;1.15;;;0.52;;
59189;SDS011;50749;51.636;4.948;2022-10-16T04:00:40;1.70;;;0.80;;
59189;SDS011;50749;51.636;4.948;2022-10-16T04:03:06;1.23;;;0.57;;
59189;SDS011;50749;51.636;4.948;2022-10-16T04:05:33;1.25;;;0.75;;
59189;SDS011;50749;51.636;4.948;2022-10-16T04:07:59;1.40;;;1.00;;
59189;SDS011;50749;51.636;4.948;2022-10-16T04:10:25;1.65;;;0.60;;
59189;SDS011;50749;51.636;4.948;2022-10-16T04:12:50;1.27;;;0.50;;
59189;SDS011;50749;51.636;4.948;2022-10-16T04:15:16;0.68;;;0.55;;
59189;SDS011;50749;51.636;4.948;2022-10-16T04:17:42;1.50;;;0.68;;
59189;SDS011;50749;51.636;4.948;2022-10-16T04:20:08;2.38;;;0.80;;
59189;SDS011;50749;51.636;4.948;2022-10-16T04:22:34;1.55;;;0.75;;
59189;SDS011;50749;51.636;4.948;2022-10-16T04:25:00;1.00;;;0.57;;
59189;SDS011;50749;51.636;4.948;2022-10-16T04:27:25;1.45;;;0.73;;
59189;SDS011;50749;51.636;4.948;2022-10-16T04:29:51;1.80;;;0.70;;
59189;SDS011;50749;51.636;4.948;2022-10-16T04:32:17;1.00;;;0.60;;
59189;SDS011;50749;51.636;4.948;2022-10-16T04:34:43;1.55;;;0.70;;
59189;SDS011;50749;51.636;4.948;2022-10-16T04:37:08;4.18;;;0.55;;
59189;SDS011;50749;51.636;4.948;2022-10-16T04:39:34;1.33;;;0.60;;
59189;SDS011;50749;51.636;4.948;2022-10-16T04:42:00;1.17;;;0.57;;
59189;SDS011;50749;51.636;4.948;2022-10-16T04:44:26;1.20;;;0.60;;
59189;SDS011;50749;51.636;4.948;2022-10-16T04:46:51;1.38;;;0.70;;
59189;SDS011;50749;51.636;4.948;2022-10-16T04:49:17;1.23;;;0.52;;
59189;SDS011;50749;51.636;4.948;2022-10-16T04:51:43;1.30;;;0.70;;
59189;SDS011;50749;51.636;4.948;2022-10-16T04:54:09;1.42;;;0.93;;
59189;SDS011;50749;51.636;4.948;2022-10-16T04:56:35;1.17;;;0.68;;
59189;SDS011;50749;51.636;4.948;2022-10-16T04:59:08;0.95;;;0.63;;
59189;SDS011;50749;51.636;4.948;2022-10-16T05:01:34;1.05;;;0.65;;
59189;SDS011;50749;51.636;4.948;2022-10-16T05:04:00;1.50;;;0.70;;
59189;SDS011;50749;51.636;4.948;2022-10-16T05:06:26;1.75;;;0.75;;
59189;SDS011;50749;51.636;4.948;2022-10-16T05:08:52;1.55;;;0.70;;
59189;SDS011;50749;51.636;4.948;2022-10-16T05:11:18;1.02;;;0.57;;
59189;SDS011;50749;51.636;4.948;2022-10-16T05:13:44;1.65;;;0.70;;
59189;SDS011;50749;51.636;4.948;2022-10-16T05:16:09;1.50;;;0.68;;
59189;SDS011;50749;51.636;4.948;2022-10-16T05:18:35;1.45;;;0.70;;
59189;SDS011;50749;51.636;4.948;2022-10-16T05:21:01;3.00;;;0.80;;
59189;SDS011;50749;51.636;4.948;2022-10-16T05:23:27;1.90;;;0.75;;
59189;SDS011;50749;51.636;4.948;2022-10-16T05:25:55;1.13;;;0.60;;
59189;SDS011;50749;51.636;4.948;2022-10-16T05:28:27;2.10;;;0.60;;
59189;SDS011;50749;51.636;4.948;2022-10-16T05:30:54;1.65;;;0.70;;
59189;SDS011;50749;51.636;4.948;2022-10-16T05:33:20;2.28;;;0.77;;
59189;SDS011;50749;51.636;4.948;2022-10-16T05:35:47;1.45;;;0.70;;
59189;SDS011;50749;51.636;4.948;2022-10-16T05:38:13;1.45;;;0.80;;
59189;SDS011;50749;51.636;4.948;2022-10-16T05:40:38;1.30;;;0.70;;
59189;SDS011;50749;51.636;4.948;2022-10-16T05:43:05;1.27;;;0.63;;
59189;SDS011;50749;51.636;4.948;2022-10-16T05:45:30;2.45;;;0.90;;
59189;SDS011;50749;51.636;4.948;2022-10-16T05:47:56;1.73;;;0.50;;
59189;SDS011;50749;51.636;4.948;2022-10-16T05:50:22;1.98;;;0.82;;
59189;SDS011;50749;51.636;4.948;2022-10-16T05:52:48;1.50;;;0.70;;
59189;SDS011;50749;51.636;4.948;2022-10-16T05:55:13;1.83;;;0.60;;
59189;SDS011;50749;51.636;4.948;2022-10-16T05:57:39;2.05;;;0.70;;
59189;SDS011;50749;51.636;4.948;2022-10-16T06:00:05;2.22;;;0.70;;
59189;SDS011;50749;51.636;4.948;2022-10-16T06:02:31;0.95;;;0.47;;
59189;SDS011;50749;51.636;4.948;2022-10-16T06:04:57;0.95;;;0.50;;
59189;SDS011;50749;51.636;4.948;2022-10-16T06:07:23;2.00;;;0.70;;
59189;SDS011;50749;51.636;4.948;2022-10-16T06:09:49;1.27;;;0.65;;
59189;SDS011;50749;51.636;4.948;2022-10-16T06:12:16;2.00;;;0.80;;
59189;SDS011;50749;51.636;4.948;2022-10-16T06:14:42;1.20;;;0.60;;
59189;SDS011;50749;51.636;4.948;2022-10-16T06:17:08;1.95;;;0.70;;
59189;SDS011;50749;51.636;4.948;2022-10-16T06:19:33;1.85;;;0.80;;
59189;SDS011;50749;51.636;4.948;2022-10-16T06:21:59;1.95;;;0.52;;
59189;SDS011;50749;51.636;4.948;2022-10-16T06:24:25;1.35;;;0.75;;
59189;SDS011;50749;51.636;4.948;2022-10-16T06:26:51;2.03;;;0.75;;
59189;SDS011;50749;51.636;4.948;2022-10-16T06:29:17;1.73;;;0.60;;
59189;SDS011;50749;51.636;4.948;2022-10-16T06:31:43;1.05;;;0.60;;
59189;SDS011;50749;51.636;4.948;2022-10-16T06:34:09;1.27;;;0.70;;
59189;SDS011;50749;51.636;4.948;2022-10-16T06:36:36;0.68;;;0.45;;
59189;SDS011;50749;51.636;4.948;2022-10-16T06:39:02;1.80;;;0.60;;
59189;SDS011;50749;51.636;4.948;2022-10-16T06:41:28;2.05;;;0.68;;
59189;SDS011;50749;51.636;4.948;2022-10-16T06:43:54;0.77;;;0.57;;
59189;SDS011;50749;51.636;4.948;2022-10-16T06:46:21;1.20;;;0.47;;
59189;SDS011;50749;51.636;4.948;2022-10-16T06:48:49;1.40;;;0.80;;
59189;SDS011;50749;51.636;4.948;2022-10-16T06:51:16;2.17;;;0.80;;
59189;SDS011;50749;51.636;4.948;2022-10-16T06:53:47;3.28;;;0.90;;
59189;SDS011;50749;51.636;4.948;2022-10-16T06:56:18;1.20;;;0.70;;
59189;SDS011;50749;51.636;4.948;2022-10-16T06:58:45;2.00;;;0.52;;
59189;SDS011;50749;51.636;4.948;2022-10-16T07:01:12;1.48;;;0.75;;
59189;SDS011;50749;51.636;4.948;2022-10-16T07:03:39;2.58;;;0.75;;
59189;SDS011;50749;51.636;4.948;2022-10-16T07:06:07;3.03;;;0.68;;
59189;SDS011;50749;51.636;4.948;2022-10-16T07:08:35;7.13;;;1.05;;
59189;SDS011;50749;51.636;4.948;2022-10-16T07:11:03;1.52;;;0.70;;
59189;SDS011;50749;51.636;4.948;2022-10-16T07:13:32;3.13;;;1.00;;
59189;SDS011;50749;51.636;4.948;2022-10-16T07:16:06;1.77;;;0.80;;
59189;SDS011;50749;51.636;4.948;2022-10-16T07:18:42;4.20;;;1.00;;
59189;SDS011;50749;51.636;4.948;2022-10-16T07:21:20;1.80;;;0.70;;
59189;SDS011;50749;51.636;4.948;2022-10-16T07:23:50;3.70;;;0.80;;
59189;SDS011;50749;51.636;4.948;2022-10-16T07:26:21;5.35;;;1.17;;
59189;SDS011;50749;51.636;4.948;2022-10-16T07:28:48;2.60;;;1.05;;
59189;SDS011;50749;51.636;4.948;2022-10-16T07:31:14;2.90;;;0.93;;
59189;SDS011;50749;51.636;4.948;2022-10-16T07:33:42;3.38;;;1.15;;
59189;SDS011;50749;51.636;4.948;2022-10-16T07:36:10;8.57;;;1.05;;
59189;SDS011;50749;51.636;4.948;2022-10-16T07:38:37;3.95;;;0.68;;
59189;SDS011;50749;51.636;4.948;2022-10-16T07:41:04;4.15;;;0.82;;
59189;SDS011;50749;51.636;4.948;2022-10-16T07:43:32;3.47;;;1.08;;
59189;SDS011;50749;51.636;4.948;2022-10-16T07:45:59;7.25;;;1.25;;
59189;SDS011;50749;51.636;4.948;2022-10-16T07:48:29;3.80;;;0.90;;
59189;SDS011;50749;51.636;4.948;2022-10-16T07:51:00;6.32;;;0.85;;
59189;SDS011;50749;51.636;4.948;2022-10-16T07:53:27;2.00;;;0.90;;
59189;SDS011;50749;51.636;4.948;2022-10-16T07:56:00;1.85;;;0.85;;
59189;SDS011;50749;51.636;4.948;2022-10-16T07:58:27;2.90;;;1.75;;
59189;SDS011;50749;51.636;4.948;2022-10-16T08:00:54;2.13;;;0.88;;
59189;SDS011;50749;51.636;4.948;2022-10-16T08:03:20;6.03;;;0.80;;
59189;SDS011;50749;51.636;4.948;2022-10-16T08:05:46;2.83;;;0.70;;
59189;SDS011;50749;51.636;4.948;2022-10-16T08:08:13;4.55;;;0.80;;
59189;SDS011;50749;51.636;4.948;2022-10-16T08:10:40;3.38;;;0.70;;
59189;SDS011;50749;51.636;4.948;2022-10-16T08:13:06;1.85;;;0.60;;
59189;SDS011;50749;51.636;4.948;2022-10-16T08:15:32;2.92;;;0.82;;
59189;SDS011;50749;51.636;4.948;2022-10-16T08:17:59;3.40;;;1.00;;
59189;SDS011;50749;51.636;4.948;2022-10-16T08:20:26;3.70;;;0.80;;
59189;SDS011;50749;51.636;4.948;2022-10-16T08:22:53;2.33;;;0.77;;
59189;SDS011;50749;51.636;4.948;2022-10-16T08:25:20;3.42;;;0.80;;
59189;SDS011;50749;51.636;4.948;2022-10-16T08:27:47;3.85;;;1.00;;
59189;SDS011;50749;51.636;4.948;2022-10-16T08:30:12;2.63;;;0.77;;
59189;SDS011;50749;51.636;4.948;2022-10-16T08:32:39;1.48;;;0.60;;
59189;SDS011;50749;51.636;4.948;2022-10-16T08:35:06;2.95;;;0.80;;
59189;SDS011;50749;51.636;4.948;2022-10-16T08:37:34;2.25;;;0.68;;
59189;SDS011;50749;51.636;4.948;2022-10-16T08:40:00;4.13;;;0.85;;
59189;SDS011;50749;51.636;4.948;2022-10-16T08:50:45;1.25;;;0.60;;
59189;SDS011;50749;51.636;4.948;2022-10-16T08:53:15;1.95;;;0.70;;
59189;SDS011;50749;51.636;4.948;2022-10-16T08:56:04;1.20;;;0.75;;
59189;SDS011;50749;51.636;4.948;2022-10-16T08:58:30;2.83;;;0.80;;
59189;SDS011;50749;51.636;4.948;2022-10-16T09:00:59;4.97;;;1.00;;
59189;SDS011;50749;51.636;4.948;2022-10-16T09:16:52;3.53;;;0.80;;
59189;SDS011;50749;51.636;4.948;2022-10-16T09:19:24;3.65;;;0.63;;
59189;SDS011;50749;51.636;4.948;2022-10-16T09:21:59;2.55;;;0.68;;
59189;SDS011;50749;51.636;4.948;2022-10-16T09:24:35;4.55;;;0.70;;
59189;SDS011;50749;51.636;4.948;2022-10-16T09:27:02;5.25;;;0.73;;
59189;SDS011;50749;51.636;4.948;2022-10-16T09:29:27;7.57;;;0.73;;
59189;SDS011;50749;51.636;4.948;2022-10-16T09:31:54;1.58;;;0.60;;
59189;SDS011;50749;51.636;4.948;2022-10-16T09:36:48;2.92;;;0.80;;
59189;SDS011;50749;51.636;4.948;2022-10-16T09:39:15;3.70;;;0.95;;
59189;SDS011;50749;51.636;4.948;2022-10-16T09:41:42;4.50;;;0.82;;
59189;SDS011;50749;51.636;4.948;2022-10-16T09:47:00;4.40;;;0.80;;
59189;SDS011;50749;51.636;4.948;2022-10-16T09:49:29;3.75;;;0.93;;
59189;SDS011;50749;51.636;4.948;2022-10-16T09:52:09;6.38;;;1.30;;
59189;SDS011;50749;51.636;4.948;2022-10-16T09:54:37;4.78;;;1.38;;
59189;SDS011;50749;51.636;4.948;2022-10-16T09:57:14;7.97;;;1.20;;
59189;SDS011;50749;51.636;4.948;2022-10-16T10:05:04;12.63;;;1.20;;
59189;SDS011;50749;51.636;4.948;2022-10-16T10:07:39;7.70;;;0.90;;
59189;SDS011;50749;51.636;4.948;2022-10-16T10:10:22;5.78;;;1.13;;
59189;SDS011;50749;51.636;4.948;2022-10-16T10:12:51;8.60;;;1.30;;
59189;SDS011;50749;51.636;4.948;2022-10-16T10:15:17;6.82;;;1.20;;
59189;SDS011;50749;51.636;4.948;2022-10-16T10:17:57;9.70;;;1.20;;
59189;SDS011;50749;51.636;4.948;2022-10-16T10:20:27;8.45;;;1.35;;
59189;SDS011;50749;51.636;4.948;2022-10-16T10:22:55;4.47;;;1.85;;
59189;SDS011;50749;51.636;4.948;2022-10-16T10:28:21;7.50;;;1.10;;
59189;SDS011;50749;51.636;4.948;2022-10-16T10:42:28;5.18;;;0.95;;
59189;SDS011;50749;51.636;4.948;2022-10-16T10:45:18;9.10;;;1.27;;
59189;SDS011;50749;51.636;4.948;2022-10-16T10:47:53;10.43;;;1.30;;
59189;SDS011;50749;51.636;4.948;2022-10-16T10:55:59;5.88;;;1.55;;
59189;SDS011;50749;51.636;4.948;2022-10-16T11:06:40;5.15;;;0.98;;
59189;SDS011;50749;51.636;4.948;2022-10-16T11:09:11;7.28;;;1.35;;
59189;SDS011;50749;51.636;4.948;2022-10-16T11:12:00;5.68;;;1.02;;
59189;SDS011;50749;51.636;4.948;2022-10-16T11:17:52;6.95;;;1.55;;
59189;SDS011;50749;51.636;4.948;2022-10-16T11:20:24;4.93;;;1.83;;
59189;SDS011;50749;51.636;4.948;2022-10-16T11:22:54;7.78;;;1.60;;
59189;SDS011;50749;51.636;4.948;2022-10-16T11:25:29;7.55;;;1.52;;
59189;SDS011;50749;51.636;4.948;2022-10-16T11:30:30;7.63;;;1.45;;
59189;SDS011;50749;51.636;4.948;2022-10-16T11:33:18;5.10;;;1.05;;
59189;SDS011;50749;51.636;4.948;2022-10-16T11:35:55;5.38;;;1.20;;
59189;SDS011;50749;51.636;4.948;2022-10-16T11:38:28;1.95;;;0.70;;
59189;SDS011;50749;51.636;4.948;2022-10-16T11:40:59;4.15;;;0.95;;
59189;SDS011;50749;51.636;4.948;2022-10-16T11:43:37;2.72;;;1.00;;
59189;SDS011;50749;51.636;4.948;2022-10-16T11:46:15;6.18;;;1.30;;
59189;SDS011;50749;51.636;4.948;2022-10-16T11:51:39;6.05;;;1.35;;
59189;SDS011;50749;51.636;4.948;2022-10-16T11:54:20;6.35;;;1.60;;
59189;SDS011;50749;51.636;4.948;2022-10-16T11:56:55;4.38;;;0.90;;
59189;SDS011;50749;51.636;4.948;2022-10-16T12:04:50;5.70;;;1.10;;
59189;SDS011;50749;51.636;4.948;2022-10-16T12:07:27;7.50;;;1.30;;
59189;SDS011;50749;51.636;4.948;2022-10-16T12:10:18;9.43;;;1.08;;
59189;SDS011;50749;51.636;4.948;2022-10-16T12:12:50;3.47;;;0.80;;
59189;SDS011;50749;51.636;4.948;2022-10-16T12:15:30;9.93;;;1.50;;
59189;SDS011;50749;51.636;4.948;2022-10-16T12:17:58;7.82;;;1.30;;
59189;SDS011;50749;51.636;4.948;2022-10-16T12:20:33;6.97;;;1.48;;
59189;SDS011;50749;51.636;4.948;2022-10-16T12:23:03;5.50;;;1.50;;
59189;SDS011;50749;51.636;4.948;2022-10-16T12:25:34;8.02;;;1.60;;
59189;SDS011;50749;51.636;4.948;2022-10-16T12:28:04;7.00;;;1.13;;
59189;SDS011;50749;51.636;4.948;2022-10-16T12:30:32;4.88;;;1.27;;
59189;SDS011;50749;51.636;4.948;2022-10-16T12:33:22;4.82;;;0.88;;
59189;SDS011;50749;51.636;4.948;2022-10-16T12:35:57;4.82;;;1.10;;
59189;SDS011;50749;51.636;4.948;2022-10-16T12:40:59;6.82;;;1.10;;
59189;SDS011;50749;51.636;4.948;2022-10-16T12:48:33;5.90;;;1.35;;
59189;SDS011;50749;51.636;4.948;2022-10-16T12:53:58;8.88;;;1.40;;
59189;SDS011;50749;51.636;4.948;2022-10-16T12:59:15;4.07;;;1.02;;
59189;SDS011;50749;51.636;4.948;2022-10-16T13:07:37;5.47;;;1.38;;
59189;SDS011;50749;51.636;4.948;2022-10-16T13:10:26;6.60;;;1.95;;
59189;SDS011;50749;51.636;4.948;2022-10-16T13:13:20;8.30;;;1.50;;
59189;SDS011;50749;51.636;4.948;2022-10-16T13:29:08;8.85;;;2.25;;
59189;SDS011;50749;51.636;4.948;2022-10-16T13:31:36;11.77;;;1.95;;
59189;SDS011;50749;51.636;4.948;2022-10-16T13:34:04;10.93;;;1.60;;
59189;SDS011;50749;51.636;4.948;2022-10-16T13:36:42;8.48;;;1.52;;
59189;SDS011;50749;51.636;4.948;2022-10-16T13:41:39;9.48;;;1.33;;
59189;SDS011;50749;51.636;4.948;2022-10-16T13:44:10;7.13;;;1.42;;
59189;SDS011;50749;51.636;4.948;2022-10-16T13:46:43;3.42;;;1.10;;
59189;SDS011;50749;51.636;4.948;2022-10-16T13:49:12;5.68;;;1.48;;
59189;SDS011;50749;51.636;4.948;2022-10-16T13:51:40;2.80;;;1.10;;
59189;SDS011;50749;51.636;4.948;2022-10-16T13:54:09;6.53;;;1.48;;
59189;SDS011;50749;51.636;4.948;2022-10-16T13:56:38;7.55;;;2.72;;
59189;SDS011;50749;51.636;4.948;2022-10-16T13:59:05;6.47;;;1.33;;
59189;SDS011;50749;51.636;4.948;2022-10-16T14:01:40;6.03;;;1.38;;
59189;SDS011;50749;51.636;4.948;2022-10-16T14:04:08;3.45;;;1.05;;
59189;SDS011;50749;51.636;4.948;2022-10-16T14:06:36;2.60;;;1.00;;
59189;SDS011;50749;51.636;4.948;2022-10-16T14:09:07;4.50;;;1.00;;
59189;SDS011;50749;51.636;4.948;2022-10-16T14:11:50;6.60;;;1.27;;
59189;SDS011;50749;51.636;4.948;2022-10-16T14:14:18;7.68;;;1.40;;
59189;SDS011;50749;51.636;4.948;2022-10-16T14:16:45;6.63;;;1.85;;
59189;SDS011;50749;51.636;4.948;2022-10-16T14:19:18;4.75;;;1.25;;
59189;SDS011;50749;51.636;4.948;2022-10-16T14:21:51;3.78;;;1.08;;
59189;SDS011;50749;51.636;4.948;2022-10-16T14:26:56;4.70;;;1.17;;
59189;SDS011;50749;51.636;4.948;2022-10-16T14:29:24;6.63;;;1.40;;
59189;SDS011;50749;51.636;4.948;2022-10-16T14:32:01;4.10;;;1.05;;
59189;SDS011;50749;51.636;4.948;2022-10-16T14:37:01;3.53;;;0.90;;
59189;SDS011;50749;51.636;4.948;2022-10-16T14:39:34;7.13;;;1.42;;
59189;SDS011;50749;51.636;4.948;2022-10-16T14:42:01;3.85;;;0.93;;
59189;SDS011;50749;51.636;4.948;2022-10-16T14:44:28;4.85;;;1.10;;
59189;SDS011;50749;51.636;4.948;2022-10-16T14:46:57;7.70;;;1.13;;
59189;SDS011;50749;51.636;4.948;2022-10-16T14:49:24;4.22;;;1.10;;
59189;SDS011;50749;51.636;4.948;2022-10-16T14:51:51;5.22;;;1.73;;
59189;SDS011;50749;51.636;4.948;2022-10-16T14:54:18;3.70;;;1.00;;
59189;SDS011;50749;51.636;4.948;2022-10-16T15:05:02;4.47;;;0.93;;
59189;SDS011;50749;51.636;4.948;2022-10-16T15:07:37;6.97;;;2.35;;
59189;SDS011;50749;51.636;4.948;2022-10-16T15:10:02;5.13;;;1.02;;
59189;SDS011;50749;51.636;4.948;2022-10-16T15:12:29;2.47;;;0.75;;
59189;SDS011;50749;51.636;4.948;2022-10-16T15:14:54;4.88;;;1.02;;
59189;SDS011;50749;51.636;4.948;2022-10-16T15:17:20;4.25;;;1.77;;
59189;SDS011;50749;51.636;4.948;2022-10-16T15:19:46;3.58;;;0.98;;
59189;SDS011;50749;51.636;4.948;2022-10-16T15:22:12;7.47;;;1.10;;
59189;SDS011;50749;51.636;4.948;2022-10-16T15:24:37;3.58;;;1.00;;
59189;SDS011;50749;51.636;4.948;2022-10-16T15:27:03;3.30;;;0.98;;
59189;SDS011;50749;51.636;4.948;2022-10-16T15:29:29;3.88;;;1.13;;
59189;SDS011;50749;51.636;4.948;2022-10-16T15:31:55;4.88;;;1.08;;
59189;SDS011;50749;51.636;4.948;2022-10-16T15:34:20;6.00;;;1.20;;
59189;SDS011;50749;51.636;4.948;2022-10-16T15:36:46;3.47;;;0.90;;
59189;SDS011;50749;51.636;4.948;2022-10-16T15:39:13;2.65;;;0.95;;
59189;SDS011;50749;51.636;4.948;2022-10-16T15:41:39;4.10;;;1.15;;
59189;SDS011;50749;51.636;4.948;2022-10-16T15:44:05;4.50;;;0.98;;
59189;SDS011;50749;51.636;4.948;2022-10-16T15:46:31;4.30;;;1.10;;
59189;SDS011;50749;51.636;4.948;2022-10-16T15:48:58;6.07;;;1.30;;
59189;SDS011;50749;51.636;4.948;2022-10-16T15:51:25;4.47;;;1.27;;
59189;SDS011;50749;51.636;4.948;2022-10-16T15:53:57;4.65;;;1.15;;
59189;SDS011;50749;51.636;4.948;2022-10-16T15:56:25;3.22;;;0.80;;
59189;SDS011;50749;51.636;4.948;2022-10-16T15:58:54;4.50;;;1.17;;
59189;SDS011;50749;51.636;4.948;2022-10-16T16:01:20;2.00;;;1.10;;
59189;SDS011;50749;51.636;4.948;2022-10-16T16:03:46;2.70;;;1.25;;
59189;SDS011;50749;51.636;4.948;2022-10-16T16:06:12;4.70;;;1.25;;
59189;SDS011;50749;51.636;4.948;2022-10-16T16:08:39;5.88;;;1.40;;
59189;SDS011;50749;51.636;4.948;2022-10-16T16:11:12;1.83;;;0.90;;
59189;SDS011;50749;51.636;4.948;2022-10-16T16:13:40;2.20;;;0.95;;
59189;SDS011;50749;51.636;4.948;2022-10-16T16:16:07;4.13;;;0.95;;
59189;SDS011;50749;51.636;4.948;2022-10-16T16:18:34;3.67;;;1.13;;
59189;SDS011;50749;51.636;4.948;2022-10-16T16:21:00;5.00;;;1.42;;
59189;SDS011;50749;51.636;4.948;2022-10-16T16:23:26;4.05;;;0.93;;
59189;SDS011;50749;51.636;4.948;2022-10-16T16:26:05;4.53;;;1.20;;
59189;SDS011;50749;51.636;4.948;2022-10-16T16:28:39;2.42;;;1.08;;
59189;SDS011;50749;51.636;4.948;2022-10-16T16:31:07;3.20;;;1.38;;
59189;SDS011;50749;51.636;4.948;2022-10-16T16:33:32;4.03;;;1.05;;
59189;SDS011;50749;51.636;4.948;2022-10-16T16:36:00;3.10;;;0.95;;
59189;SDS011;50749;51.636;4.948;2022-10-16T16:38:26;5.20;;;1.25;;
59189;SDS011;50749;51.636;4.948;2022-10-16T16:40:53;4.65;;;0.95;;
59189;SDS011;50749;51.636;4.948;2022-10-16T16:43:22;3.38;;;0.80;;
59189;SDS011;50749;51.636;4.948;2022-10-16T16:45:49;2.67;;;1.02;;
59189;SDS011;50749;51.636;4.948;2022-10-16T16:48:14;3.25;;;1.00;;
59189;SDS011;50749;51.636;4.948;2022-10-16T16:50:40;5.18;;;1.00;;
59189;SDS011;50749;51.636;4.948;2022-10-16T16:53:06;2.85;;;1.00;;
59189;SDS011;50749;51.636;4.948;2022-10-16T16:55:32;3.25;;;1.05;;
59189;SDS011;50749;51.636;4.948;2022-10-16T16:57:57;1.85;;;0.82;;
59189;SDS011;50749;51.636;4.948;2022-10-16T17:00:23;3.75;;;1.08;;
59189;SDS011;50749;51.636;4.948;2022-10-16T17:02:49;3.33;;;1.13;;
59189;SDS011;50749;51.636;4.948;2022-10-16T17:05:16;2.92;;;1.00;;
59189;SDS011;50749;51.636;4.948;2022-10-16T17:07:43;3.08;;;1.20;;
59189;SDS011;50749;51.636;4.948;2022-10-16T17:10:09;1.42;;;0.82;;
59189;SDS011;50749;51.636;4.948;2022-10-16T17:12:35;3.00;;;1.05;;
59189;SDS011;50749;51.636;4.948;2022-10-16T17:15:01;3.70;;;0.98;;
59189;SDS011;50749;51.636;4.948;2022-10-16T17:17:27;4.75;;;1.05;;
59189;SDS011;50749;51.636;4.948;2022-10-16T17:19:53;4.40;;;1.15;;